Time;durP1;ratioP1;P1;durP2;ratioP2;P2;SDS_P1;SDS_P2;PMS_P1;PMS_P2;Temp;Humidity;BMP_temperature;BMP_pressure;BME280_temperature;BME280_humidity;BME280_pressure;Samples;Min_cycle;Max_cycle;Signal;HPM_P1;HPM_P2
2022/09/07 06:25:26;;;;;;;;;1.33;1.33;;;;;;;;6334861;22;46188;-87
2022/09/07 06:27:52;;;;;;;;;3.00;1.67;;;;;;;;6337473;22;47729;-88
2022/09/07 06:30:17;;;;;;;;;1.33;1.00;;;;;;;;6367113;22;45586;-90
2022/09/07 06:32:43;;;;;;;;;2.33;2.33;;;;;;;;6368013;22;45295;-87
2022/09/07 06:35:08;;;;;;;;;0.00;0.00;;;;;;;;6338439;22;45530;-86
2022/09/07 06:37:33;;;;;;;;;1.00;1.00;;;;;;;;6367581;22;45730;-89
2022/09/07 06:39:59;;;;;;;;;3.67;1.00;;;;;;;;6338944;22;45854;-91
2022/09/07 06:42:24;;;;;;;;;1.00;1.00;;;;;;;;6369143;22;45238;-91
2022/09/07 06:44:49;;;;;;;;;2.00;2.00;;;;;;;;6376379;22;45379;-90
2022/09/07 06:47:14;;;;;;;;;2.00;2.00;;;;;;;;6348385;22;48616;-91
2022/09/07 06:49:39;;;;;;;;;2.33;2.00;;;;;;;;6377367;22;45423;-90
2022/09/07 06:52:04;;;;;;;;;1.00;1.00;;;;;;;;6349398;22;45240;-91
2022/09/07 06:54:30;;;;;;;;;2.00;2.00;;;;;;;;6377351;22;45335;-91
2022/09/07 06:56:55;;;;;;;;;3.00;2.00;;;;;;;;6376797;22;46299;-90
2022/09/07 06:59:20;;;;;;;;;1.00;1.00;;;;;;;;6376003;22;45216;-90
2022/09/07 07:01:45;;;;;;;;;2.67;2.00;;;;;;;;6376327;22;45208;-91
2022/09/07 07:04:11;;;;;;;;;2.67;1.00;;;;;;;;6347931;22;45585;-91
2022/09/07 07:06:36;;;;;;;;;3.00;2.00;;;;;;;;6377021;22;46016;-90
2022/09/07 07:09:04;;;;;;;;;2.00;1.00;;;;;;;;6373806;22;45438;-91
2022/09/07 07:11:30;;;;;;;;;2.00;1.00;;;;;;;;6346811;22;45198;-91
2022/09/07 07:13:55;;;;;;;;;3.00;2.33;;;;;;;;6343490;22;45698;-91
2022/09/07 07:16:20;;;;;;;;;4.33;2.33;;;;;;;;6364415;22;45662;-90
2022/09/07 07:18:47;;;;;;;;;1.67;1.67;;;;;;;;6364130;22;45680;-90
2022/09/07 07:21:14;;;;;;;;;3.00;1.67;;;;;;;;6366771;22;45659;-92
2022/09/07 07:23:40;;;;;;;;;2.67;0.67;;;;;;;;6338270;22;45505;-91
2022/09/07 07:26:10;;;;;;;;;1.00;1.00;;;;;;;;6337264;22;46988;-91
2022/09/07 07:28:36;;;;;;;;;3.00;1.00;;;;;;;;6338582;22;45414;-91
2022/09/07 07:31:02;;;;;;;;;2.67;2.00;;;;;;;;6336616;22;45410;-91
2022/09/07 07:33:31;;;;;;;;;9.00;3.00;;;;;;;;6365083;22;45611;-91
2022/09/07 07:36:13;;;;;;;;;2.00;2.00;;;;;;;;6334955;22;47928;-91
2022/09/07 07:38:39;;;;;;;;;2.00;2.00;;;;;;;;6335899;22;45554;-90
2022/09/07 07:41:04;;;;;;;;;2.67;1.00;;;;;;;;6337406;22;45282;-90
2022/09/07 07:43:30;;;;;;;;;3.00;2.00;;;;;;;;6365986;22;45241;-90
2022/09/07 07:45:56;;;;;;;;;1.00;1.00;;;;;;;;6363026;22;45233;-91
2022/09/07 07:48:21;;;;;;;;;1.33;1.00;;;;;;;;6335425;22;45640;-91
2022/09/07 07:50:57;;;;;;;;;4.00;1.00;;;;;;;;6341058;22;45339;-89
2022/09/07 07:53:22;;;;;;;;;1.67;1.67;;;;;;;;6367228;22;45314;-91
2022/09/07 07:55:47;;;;;;;;;3.00;1.00;;;;;;;;6365536;22;46864;-91
2022/09/07 07:58:13;;;;;;;;;3.33;3.00;;;;;;;;6333219;22;45551;-92
2022/09/07 08:00:38;;;;;;;;;4.00;2.00;;;;;;;;6334396;22;45448;-83
2022/09/07 08:03:03;;;;;;;;;3.00;3.00;;;;;;;;6360730;22;45276;-83
2022/09/07 08:05:28;;;;;;;;;6.67;2.00;;;;;;;;6364642;22;46158;-83
2022/09/07 08:07:53;;;;;;;;;5.00;2.00;;;;;;;;6335992;22;45383;-83
2022/09/07 08:10:19;;;;;;;;;1.00;1.00;;;;;;;;6363969;22;45355;-83
2022/09/07 08:12:46;;;;;;;;;2.67;2.00;;;;;;;;6336531;22;45326;-84
2022/09/07 08:15:11;;;;;;;;;3.33;2.00;;;;;;;;6364175;22;45357;-84
2022/09/07 08:17:36;;;;;;;;;2.00;2.00;;;;;;;;6363820;22;45331;-84
2022/09/07 08:20:02;;;;;;;;;2.33;2.33;;;;;;;;6364711;22;45260;-83
2022/09/07 08:22:27;;;;;;;;;4.00;3.00;;;;;;;;6362720;22;45378;-84
2022/09/07 08:24:52;;;;;;;;;1.67;1.00;;;;;;;;6364283;22;46277;-84
2022/09/07 08:27:18;;;;;;;;;3.00;2.00;;;;;;;;6363605;22;45675;-84
2022/09/07 08:29:43;;;;;;;;;3.00;1.00;;;;;;;;6364877;22;45357;-84
2022/09/07 08:32:08;;;;;;;;;1.00;1.00;;;;;;;;6366779;22;45365;-84
2022/09/07 08:34:35;;;;;;;;;2.67;2.67;;;;;;;;6366272;22;45624;-85
2022/09/07 08:37:00;;;;;;;;;2.00;2.00;;;;;;;;6364800;22;45298;-84
2022/09/07 08:39:25;;;;;;;;;2.00;1.50;;;;;;;;6335148;22;45370;-84
2022/09/07 08:41:50;;;;;;;;;0.00;0.00;;;;;;;;6361109;22;45334;-84
2022/09/07 08:44:18;;;;;;;;;3.75;2.00;;;;;;;;6371167;22;45616;-84
2022/09/07 08:46:51;;;;;;;;;2.67;2.67;;;;;;;;6372111;22;45538;-84
2022/09/07 08:49:22;;;;;;;;;2.33;2.33;;;;;;;;6374485;22;45275;-84
2022/09/07 08:51:48;;;;;;;;;0.67;0.67;;;;;;;;6373729;22;45338;-84
2022/09/07 08:54:15;;;;;;;;;1.00;1.00;;;;;;;;6373780;22;46712;-84
2022/09/07 08:56:44;;;;;;;;;4.33;1.00;;;;;;;;6361260;22;45651;-84
2022/09/07 08:59:20;;;;;;;;;2.33;1.67;;;;;;;;6362309;22;45308;-84
2022/09/07 09:01:45;;;;;;;;;3.33;2.33;;;;;;;;6364885;22;45328;-84
2022/09/07 09:04:30;;;;;;;;;0.67;0.67;;;;;;;;6364901;22;46572;-84
2022/09/07 09:06:56;;;;;;;;;0.33;0.33;;;;;;;;6363465;22;45690;-84
2022/09/07 09:09:44;;;;;;;;;2.00;1.00;;;;;;;;6365265;22;45350;-84
2022/09/07 09:12:28;;;;;;;;;3.67;1.33;;;;;;;;6363963;22;45467;-83
2022/09/07 09:15:09;;;;;;;;;4.33;2.00;;;;;;;;6364355;22;46156;-84
2022/09/07 09:17:57;;;;;;;;;3.00;2.00;;;;;;;;6365444;22;45415;-84
2022/09/07 09:20:25;;;;;;;;;2.00;1.67;;;;;;;;6236124;22;45384;-84
2022/09/07 09:22:53;;;;;;;;;1.00;1.00;;;;;;;;6235959;22;45243;-83
2022/09/07 09:25:25;;;;;;;;;6.00;1.67;;;;;;;;6236099;22;45653;-84
2022/09/07 09:27:51;;;;;;;;;2.00;2.00;;;;;;;;6236510;22;45417;-84
2022/09/07 09:30:17;;;;;;;;;2.00;2.00;;;;;;;;6236960;22;45507;-84
2022/09/07 09:32:44;;;;;;;;;4.00;3.00;;;;;;;;6236902;22;45500;-83
2022/09/07 09:35:12;;;;;;;;;4.00;3.00;;;;;;;;6233782;22;45675;-84
2022/09/07 09:37:38;;;;;;;;;2.00;2.00;;;;;;;;6236924;22;45376;-83
2022/09/07 09:40:05;;;;;;;;;2.33;2.33;;;;;;;;6236841;22;45396;-83
2022/09/07 09:42:32;;;;;;;;;1.00;0.67;;;;;;;;6210781;22;45541;-83
2022/09/07 09:45:02;;;;;;;;;2.00;1.00;;;;;;;;6236546;22;46317;-83
2022/09/07 09:47:29;;;;;;;;;2.00;2.00;;;;;;;;6234208;22;45749;-83
2022/09/07 09:49:55;;;;;;;;;1.67;1.00;;;;;;;;6236825;22;45414;-83
2022/09/07 09:52:22;;;;;;;;;0.33;0.33;;;;;;;;6236389;22;45485;-84
2022/09/07 09:54:51;;;;;;;;;2.67;2.00;;;;;;;;6236823;22;46239;-83
2022/09/07 09:57:36;;;;;;;;;2.67;2.00;;;;;;;;6292406;22;45540;-84
2022/09/07 10:00:02;;;;;;;;;4.00;2.00;;;;;;;;6363798;22;45370;-83
2022/09/07 10:02:31;;;;;;;;;5.33;3.00;;;;;;;;6365475;22;45354;-84
2022/09/07 10:04:56;;;;;;;;;1.00;1.00;;;;;;;;6336470;22;47162;-84
2022/09/07 10:07:25;;;;;;;;;4.00;1.00;;;;;;;;6364872;22;45309;-84
2022/09/07 10:09:52;;;;;;;;;5.67;3.00;;;;;;;;6336161;22;45438;-84
2022/09/07 10:12:26;;;;;;;;;5.00;2.33;;;;;;;;6334896;22;45292;-84
2022/09/07 10:14:52;;;;;;;;;2.00;2.00;;;;;;;;6369168;22;46055;-85
2022/09/07 10:17:32;;;;;;;;;3.67;3.33;;;;;;;;6337877;22;45368;-84
2022/09/07 10:20:18;;;;;;;;;2.00;2.00;;;;;;;;6365544;22;45346;-85
2022/09/07 10:22:50;;;;;;;;;3.67;3.33;;;;;;;;6364460;22;45650;-84
2022/09/07 10:25:35;;;;;;;;;3.67;3.00;;;;;;;;6362043;22;46609;-85
2022/09/07 10:28:00;;;;;;;;;4.33;1.67;;;;;;;;6369513;22;45729;-94
2022/09/07 10:30:25;;;;;;;;;3.00;0.50;;;;;;;;6378072;22;45220;-88
2022/09/07 10:32:57;;;;;;;;;4.00;2.00;;;;;;;;6382375;22;44719;-89
2022/09/07 10:35:29;;;;;;;;;3.00;1.00;;;;;;;;6372781;22;45508;-89
2022/09/07 10:37:54;;;;;;;;;1.00;1.00;;;;;;;;6366760;22;45299;-88
2022/09/07 10:40:39;;;;;;;;;1.50;1.50;;;;;;;;6342225;22;45252;-86
2022/09/07 10:43:07;;;;;;;;;3.00;2.00;;;;;;;;6366902;22;45234;-88
2022/09/07 10:45:47;;;;;;;;;2.00;1.00;;;;;;;;6367688;22;46231;-86
2022/09/07 10:48:18;;;;;;;;;1.67;1.00;;;;;;;;6365396;22;45332;-87
2022/09/07 10:50:43;;;;;;;;;1.33;0.33;;;;;;;;6338105;22;45363;-88
2022/09/07 10:53:17;;;;;;;;;4.67;2.00;;;;;;;;6338295;22;45270;-86
2022/09/07 10:55:50;;;;;;;;;1.00;1.00;;;;;;;;6366074;22;45733;-90
2022/09/07 10:58:33;;;;;;;;;2.33;2.33;;;;;;;;6365920;22;45609;-84
2022/09/07 11:01:01;;;;;;;;;1.33;1.33;;;;;;;;6337680;22;45331;-85
2022/09/07 11:03:32;;;;;;;;;2.00;2.00;;;;;;;;6367128;22;45364;-94
2022/09/07 11:06:06;;;;;;;;;0.67;0.00;;;;;;;;6366935;22;46744;-86
2022/09/07 11:08:51;;;;;;;;;1.00;1.00;;;;;;;;6336082;22;45336;-86
2022/09/07 11:11:21;;;;;;;;;2.33;2.33;;;;;;;;6335996;22;45486;-88
2022/09/07 11:13:49;;;;;;;;;1.33;1.00;;;;;;;;6365584;22;45429;-87
2022/09/07 11:16:17;;;;;;;;;1.00;1.00;;;;;;;;6365071;22;46582;-87
2022/09/07 11:18:51;;;;;;;;;3.33;1.67;;;;;;;;6334596;22;45955;-88
2022/09/07 11:21:18;;;;;;;;;0.00;0.00;;;;;;;;6363319;22;45404;-88
2022/09/07 11:23:45;;;;;;;;;0.00;0.00;;;;;;;;6365887;22;45349;-86
2022/09/07 11:26:13;;;;;;;;;1.67;0.67;;;;;;;;6361725;22;46422;-86
2022/09/07 11:28:48;;;;;;;;;1.67;1.67;;;;;;;;6334225;22;45352;-87
2022/09/07 11:31:19;;;;;;;;;2.00;2.00;;;;;;;;6365531;22;45529;-87
2022/09/07 11:33:44;;;;;;;;;2.33;1.00;;;;;;;;6365688;22;45301;-92
2022/09/07 11:36:14;;;;;;;;;2.50;1.75;;;;;;;;6365227;22;45509;-88
2022/09/07 11:38:58;;;;;;;;;2.00;1.00;;;;;;;;6336597;22;45953;-87
2022/09/07 11:41:26;;;;;;;;;1.33;1.00;;;;;;;;6365647;22;45425;-87
2022/09/07 11:44:08;;;;;;;;;2.00;2.00;;;;;;;;6365950;22;45224;-87
2022/09/07 11:46:40;;;;;;;;;5.00;2.00;;;;;;;;6336893;22;47549;-87
2022/09/07 11:49:11;;;;;;;;;2.67;2.00;;;;;;;;6337022;22;45602;-87
2022/09/07 11:51:36;;;;;;;;;1.00;0.00;;;;;;;;6336880;22;45482;-88
2022/09/07 11:54:11;;;;;;;;;4.00;1.00;;;;;;;;6365992;22;45339;-87
2022/09/07 11:56:39;;;;;;;;;2.33;1.67;;;;;;;;6338358;22;45986;-87
2022/09/07 11:59:13;;;;;;;;;2.00;1.00;;;;;;;;6368594;22;45342;-87
2022/09/07 12:01:38;;;;;;;;;1.00;1.00;;;;;;;;6341276;22;45750;-88
2022/09/07 12:04:03;;;;;;;;;1.00;1.00;;;;;;;;6369783;22;45304;-87
2022/09/07 12:06:47;;;;;;;;;2.25;2.00;;;;;;;;6338109;22;46890;-87
2022/09/07 12:09:18;;;;;;;;;2.33;2.33;;;;;;;;6343155;22;45859;-92
2022/09/07 12:11:49;;;;;;;;;2.67;1.00;;;;;;;;6344680;22;45919;-85
2022/09/07 12:14:20;;;;;;;;;1.00;1.00;;;;;;;;6346104;22;45515;-86
2022/09/07 12:16:48;;;;;;;;;3.33;3.33;;;;;;;;6374309;22;45497;-86
2022/09/07 12:19:23;;;;;;;;;2.00;1.00;;;;;;;;6370602;22;45592;-86
2022/09/07 12:21:51;;;;;;;;;1.33;1.33;;;;;;;;6367272;22;45302;-87
2022/09/07 12:24:35;;;;;;;;;2.00;2.00;;;;;;;;6363330;22;45506;-86
2022/09/07 12:27:01;;;;;;;;;3.00;2.00;;;;;;;;6366350;22;45548;-87
2022/09/07 12:29:28;;;;;;;;;2.33;0.00;;;;;;;;6367952;22;45518;-87
2022/09/07 12:31:57;;;;;;;;;2.00;1.00;;;;;;;;6338219;22;45658;-87
2022/09/07 12:34:28;;;;;;;;;2.33;1.33;;;;;;;;6367703;22;45350;-86
2022/09/07 12:36:53;;;;;;;;;2.00;2.00;;;;;;;;6367022;22;45286;-86
2022/09/07 12:39:45;;;;;;;;;0.33;0.33;;;;;;;;6367620;22;45331;-85
2022/09/07 12:42:10;;;;;;;;;1.00;1.00;;;;;;;;6361032;22;45569;-86
2022/09/07 12:44:36;;;;;;;;;1.00;1.00;;;;;;;;6367375;22;45734;-86
2022/09/07 12:47:17;;;;;;;;;1.67;1.67;;;;;;;;6367384;22;45637;-86
2022/09/07 12:50:05;;;;;;;;;4.00;1.33;;;;;;;;6338186;22;45762;-86
2022/09/07 12:52:30;;;;;;;;;2.67;1.67;;;;;;;;6369458;22;45689;-86
2022/09/07 12:55:13;;;;;;;;;1.00;1.00;;;;;;;;6374591;22;45481;-86
2022/09/07 12:58:06;;;;;;;;;0.00;0.00;;;;;;;;6366607;22;45627;-87
2022/09/07 13:00:50;;;;;;;;;1.00;1.00;;;;;;;;6366912;22;45465;-85
2022/09/07 13:03:24;;;;;;;;;0.00;0.00;;;;;;;;6373854;22;45343;-85
2022/09/07 13:05:50;;;;;;;;;1.00;1.00;;;;;;;;6379950;22;44281;-85
2022/09/07 13:08:15;;;;;;;;;1.00;1.00;;;;;;;;6367319;22;45119;-86
2022/09/07 13:10:41;;;;;;;;;0.50;0.00;;;;;;;;6368006;22;45537;-86
2022/09/07 13:13:17;;;;;;;;;2.33;1.00;;;;;;;;6369299;22;45321;-85
2022/09/07 13:15:42;;;;;;;;;1.33;0.67;;;;;;;;6368434;22;45079;-86
2022/09/07 13:18:31;;;;;;;;;1.67;1.00;;;;;;;;6357827;22;46311;-87
2022/09/07 13:21:17;;;;;;;;;0.00;0.00;;;;;;;;6358566;22;28952;-86
2022/09/07 13:23:48;;;;;;;;;1.00;1.00;;;;;;;;6386742;22;28382;-87
2022/09/07 13:26:32;;;;;;;;;1.00;1.00;;;;;;;;6387411;22;28335;-86
2022/09/07 13:29:00;;;;;;;;;2.00;1.00;;;;;;;;6358967;22;30168;-87
2022/09/07 13:31:41;;;;;;;;;2.00;2.00;;;;;;;;6358773;22;28582;-88
2022/09/07 13:34:25;;;;;;;;;1.00;1.00;;;;;;;;6389362;22;28734;-88
2022/09/07 13:36:50;;;;;;;;;3.33;2.33;;;;;;;;6390902;22;28398;-89
2022/09/07 13:39:18;;;;;;;;;1.00;1.00;;;;;;;;6397203;22;28201;-90
2022/09/07 13:41:49;;;;;;;;;2.00;2.00;;;;;;;;6393977;22;28310;-91
2022/09/07 13:44:21;;;;;;;;;4.33;1.00;;;;;;;;6363909;22;27799;-88
2022/09/07 13:47:01;;;;;;;;;2.67;1.00;;;;;;;;6396889;22;28416;-89
2022/09/07 13:49:36;;;;;;;;;0.67;0.67;;;;;;;;6368531;22;30575;-90
2022/09/07 13:52:21;;;;;;;;;2.00;2.00;;;;;;;;6395786;22;28252;-89
2022/09/07 13:55:02;;;;;;;;;2.00;2.00;;;;;;;;6392492;22;28421;-90
2022/09/07 13:57:50;;;;;;;;;3.67;1.67;;;;;;;;6396567;22;28252;-91
2022/09/07 14:00:16;;;;;;;;;1.00;1.00;;;;;;;;6265125;22;28415;-91
2022/09/07 14:02:41;;;;;;;;;1.67;1.00;;;;;;;;6278165;22;28307;-93
2022/09/07 14:05:08;;;;;;;;;2.00;1.00;;;;;;;;6288789;22;8742;-93
2022/09/07 14:07:33;;;;;;;;;2.75;1.00;;;;;;;;6289840;22;8905;-92
2022/09/07 14:10:19;;;;;;;;;1.00;0.00;;;;;;;;6260633;22;8778;-92
2022/09/07 14:12:47;;;;;;;;;0.75;0.75;;;;;;;;6288260;22;8750;-92
2022/09/07 14:15:24;;;;;;;;;2.00;1.50;;;;;;;;6287226;22;8750;-93
2022/09/07 14:17:58;;;;;;;;;1.75;0.75;;;;;;;;6260526;22;8766;-92
2022/09/07 14:20:24;;;;;;;;;1.50;1.00;;;;;;;;6288064;22;8763;-93
2022/09/07 14:22:49;;;;;;;;;0.00;0.00;;;;;;;;6289709;22;8860;-93
2022/09/07 14:25:16;;;;;;;;;2.33;1.00;;;;;;;;6234506;22;8782;-92
2022/09/07 14:27:43;;;;;;;;;2.00;2.00;;;;;;;;6287274;22;8835;-92
2022/09/07 14:30:27;;;;;;;;;0.00;0.00;;;;;;;;6286259;22;8726;-92
2022/09/07 14:32:57;;;;;;;;;1.00;1.00;;;;;;;;6261712;22;9136;-93
2022/09/07 14:35:27;;;;;;;;;1.50;1.50;;;;;;;;6256866;22;9669;-92
2022/09/07 14:37:53;;;;;;;;;1.25;1.25;;;;;;;;6378795;22;9579;-92
2022/09/07 14:40:24;;;;;;;;;1.00;1.00;;;;;;;;6412601;22;8726;-91
2022/09/07 14:42:50;;;;;;;;;2.00;2.00;;;;;;;;6383759;22;8826;-92
2022/09/07 14:45:29;;;;;;;;;1.00;1.00;;;;;;;;6411489;22;8853;-92
2022/09/07 14:47:55;;;;;;;;;1.75;1.75;;;;;;;;6382949;22;9534;-91
2022/09/07 14:50:22;;;;;;;;;2.00;1.33;;;;;;;;6413736;22;8729;-91
2022/09/07 14:52:49;;;;;;;;;6.25;2.00;;;;;;;;6413308;22;8839;-91
2022/09/07 14:55:26;;;;;;;;;1.00;1.00;;;;;;;;6383921;22;8760;-92
2022/09/07 14:58:07;;;;;;;;;2.00;1.00;;;;;;;;6412878;22;8730;-94
2022/09/07 15:00:32;;;;;;;;;3.00;2.00;;;;;;;;6385218;22;8721;-94
2022/09/07 15:02:58;;;;;;;;;2.00;2.00;;;;;;;;6385712;22;8733;-95
2022/09/07 15:05:25;;;;;;;;;2.00;2.00;;;;;;;;6386541;22;8750;-94
2022/09/07 15:07:53;;;;;;;;;2.00;0.75;;;;;;;;6386186;22;8772;-93
2022/09/07 15:10:21;;;;;;;;;1.00;1.00;;;;;;;;6384322;22;8677;-92
2022/09/07 15:12:50;;;;;;;;;2.00;1.25;;;;;;;;6413356;22;8754;-92
2022/09/07 15:15:23;;;;;;;;;2.00;1.00;;;;;;;;6382876;22;8725;-93
2022/09/07 15:17:48;;;;;;;;;2.50;1.50;;;;;;;;6412064;22;8748;-94
2022/09/07 15:20:29;;;;;;;;;1.00;1.00;;;;;;;;6416923;22;8742;-95
2022/09/07 15:22:54;;;;;;;;;2.50;1.00;;;;;;;;6420564;22;8721;-94
2022/09/07 15:25:19;;;;;;;;;3.00;1.00;;;;;;;;6423094;22;8765;-94
2022/09/07 15:27:45;;;;;;;;;0.67;0.67;;;;;;;;6394135;22;8858;-90
2022/09/07 15:30:10;;;;;;;;;0.33;0.00;;;;;;;;6395853;22;8742;-90
2022/09/07 15:32:35;;;;;;;;;1.00;1.00;;;;;;;;6393325;22;8766;-93
2022/09/07 15:35:01;;;;;;;;;1.33;0.00;;;;;;;;6392058;22;27817;-93
2022/09/07 15:37:26;;;;;;;;;1.33;1.00;;;;;;;;6393366;22;8745;-92
2022/09/07 15:39:51;;;;;;;;;1.00;1.00;;;;;;;;6391162;22;8773;-94
2022/09/07 15:42:17;;;;;;;;;0.00;0.00;;;;;;;;6389470;22;8734;-93
2022/09/07 15:44:42;;;;;;;;;3.00;1.00;;;;;;;;6385842;22;9467;-93
2022/09/07 15:47:08;;;;;;;;;1.67;1.33;;;;;;;;6383445;22;8742;-92
2022/09/07 15:49:33;;;;;;;;;3.00;1.00;;;;;;;;6412697;22;8842;-91
2022/09/07 15:51:59;;;;;;;;;0.00;0.00;;;;;;;;6412421;22;8772;-92
2022/09/07 15:54:24;;;;;;;;;2.00;0.00;;;;;;;;6382777;22;8746;-92
2022/09/07 15:56:49;;;;;;;;;0.33;0.33;;;;;;;;6385042;22;8791;-92
2022/09/07 15:59:14;;;;;;;;;0.00;0.00;;;;;;;;6388238;22;8838;-93
2022/09/07 16:01:40;;;;;;;;;1.00;1.00;;;;;;;;6386817;22;9470;-92
2022/09/07 16:04:05;;;;;;;;;1.00;1.00;;;;;;;;6383637;22;8734;-93
2022/09/07 16:06:30;;;;;;;;;3.33;1.00;;;;;;;;6383091;22;8768;-94
2022/09/07 16:08:55;;;;;;;;;1.00;1.00;;;;;;;;6383322;22;8797;-92
2022/09/07 16:11:24;;;;;;;;;0.00;0.00;;;;;;;;6410752;22;8748;-93
2022/09/07 16:13:54;;;;;;;;;0.00;0.00;;;;;;;;6383564;22;8722;-93
2022/09/07 16:16:20;;;;;;;;;0.00;0.00;;;;;;;;6411578;22;8722;-93
2022/09/07 16:18:45;;;;;;;;;0.00;0.00;;;;;;;;6411830;22;8792;-94
2022/09/07 16:21:11;;;;;;;;;1.00;1.00;;;;;;;;6410969;22;8718;-93
2022/09/07 16:23:37;;;;;;;;;1.00;1.00;;;;;;;;6383588;22;8737;-94
2022/09/07 16:26:04;;;;;;;;;1.00;1.00;;;;;;;;6383425;22;8738;-93
2022/09/07 16:28:29;;;;;;;;;1.00;1.00;;;;;;;;6383154;22;8843;-94
2022/09/07 16:30:54;;;;;;;;;0.33;0.33;;;;;;;;6411518;22;8725;-93
2022/09/07 16:33:19;;;;;;;;;2.67;1.00;;;;;;;;6383429;22;9274;-94
2022/09/07 16:36:02;;;;;;;;;2.00;2.00;;;;;;;;6411451;22;8734;-94
2022/09/07 16:38:27;;;;;;;;;1.00;1.00;;;;;;;;6384110;22;9629;-95
2022/09/07 16:40:53;;;;;;;;;1.00;1.00;;;;;;;;6411348;22;8726;-93
2022/09/07 16:43:18;;;;;;;;;3.00;3.00;;;;;;;;6381276;22;25587;-93
2022/09/07 16:45:43;;;;;;;;;1.33;1.33;;;;;;;;6410760;22;24071;-95
2022/09/07 16:48:09;;;;;;;;;2.00;1.00;;;;;;;;6379955;22;27792;-91
2022/09/07 16:50:34;;;;;;;;;1.00;1.00;;;;;;;;6404597;22;29091;-93
2022/09/07 16:52:59;;;;;;;;;1.00;1.00;;;;;;;;6388609;22;28274;-92
2022/09/07 16:55:24;;;;;;;;;1.00;1.00;;;;;;;;6358469;22;28471;-93
2022/09/07 16:57:49;;;;;;;;;0.00;0.00;;;;;;;;6356835;22;30800;-91
2022/09/07 17:00:15;;;;;;;;;1.00;1.00;;;;;;;;6387351;22;28300;-91
2022/09/07 17:02:40;;;;;;;;;2.67;1.00;;;;;;;;6364542;22;28361;-92
2022/09/07 17:05:05;;;;;;;;;2.67;2.00;;;;;;;;6395127;22;28423;-91
2022/09/07 17:07:31;;;;;;;;;1.00;1.00;;;;;;;;6367664;22;29903;-92
2022/09/07 17:09:56;;;;;;;;;0.00;0.00;;;;;;;;6368352;22;28657;-93
2022/09/07 17:12:21;;;;;;;;;1.00;1.00;;;;;;;;6369070;22;28677;-92
2022/09/07 17:14:46;;;;;;;;;2.33;1.00;;;;;;;;6368243;22;28731;-92
2022/09/07 17:17:12;;;;;;;;;2.00;0.33;;;;;;;;6396918;22;29470;-92
2022/09/07 17:19:37;;;;;;;;;1.00;1.00;;;;;;;;6367409;22;27761;-92
2022/09/07 17:22:02;;;;;;;;;1.00;1.00;;;;;;;;6368507;22;28346;-92
2022/09/07 17:24:29;;;;;;;;;1.00;1.00;;;;;;;;6393512;22;27808;-93
2022/09/07 17:26:54;;;;;;;;;1.00;0.00;;;;;;;;6357219;22;29759;-91
2022/09/07 17:29:20;;;;;;;;;2.00;2.00;;;;;;;;6384015;22;28427;-91
2022/09/07 17:31:45;;;;;;;;;0.00;0.00;;;;;;;;6358455;22;28752;-91
2022/09/07 17:34:12;;;;;;;;;1.00;1.00;;;;;;;;6359663;22;28343;-90
2022/09/07 17:36:37;;;;;;;;;2.00;2.00;;;;;;;;6385563;22;28351;-91
2022/09/07 17:39:02;;;;;;;;;1.00;1.00;;;;;;;;6357009;22;28569;-92
2022/09/07 17:41:28;;;;;;;;;1.00;1.00;;;;;;;;6358883;22;28321;-90
2022/09/07 17:43:54;;;;;;;;;1.67;1.67;;;;;;;;6357277;22;28886;-90
2022/09/07 17:46:21;;;;;;;;;0.00;0.00;;;;;;;;6357072;22;30270;-89
2022/09/07 17:48:51;;;;;;;;;1.00;1.00;;;;;;;;6358223;22;28958;-89
2022/09/07 17:51:17;;;;;;;;;1.00;1.00;;;;;;;;6386903;22;28451;-92
2022/09/07 17:53:42;;;;;;;;;0.67;0.67;;;;;;;;6388989;22;28274;-93
2022/09/07 17:56:09;;;;;;;;;2.33;2.00;;;;;;;;6359018;22;29069;-91
2022/09/07 17:58:35;;;;;;;;;2.00;1.67;;;;;;;;6357853;22;29377;-91
2022/09/07 18:01:01;;;;;;;;;2.00;2.00;;;;;;;;6387421;22;28307;-93
2022/09/07 18:03:26;;;;;;;;;1.00;1.00;;;;;;;;6384979;22;28547;-94
2022/09/07 18:05:53;;;;;;;;;2.00;2.00;;;;;;;;6388431;22;28387;-94
2022/09/07 18:08:18;;;;;;;;;1.00;1.00;;;;;;;;6394206;22;28406;-94
2022/09/07 18:10:43;;;;;;;;;1.00;1.00;;;;;;;;6365937;22;28449;-94
2022/09/07 18:13:08;;;;;;;;;3.00;1.00;;;;;;;;6367755;22;27826;-94
2022/09/07 18:15:36;;;;;;;;;1.00;1.00;;;;;;;;6392099;22;28301;-95
2022/09/07 18:18:02;;;;;;;;;1.00;1.00;;;;;;;;6366422;22;28568;-94
2022/09/07 18:20:32;;;;;;;;;1.00;1.00;;;;;;;;6374086;22;27821;-92
2022/09/07 18:22:58;;;;;;;;;2.00;1.00;;;;;;;;6405115;22;28586;-96
2022/09/07 18:25:23;;;;;;;;;1.33;1.33;;;;;;;;6337561;22;28369;-96
2022/09/07 18:27:48;;;;;;;;;2.00;2.00;;;;;;;;6334537;22;27746;-96
2022/09/07 18:30:14;;;;;;;;;0.00;0.00;;;;;;;;6332426;22;28336;-96
2022/09/07 18:32:39;;;;;;;;;1.00;1.00;;;;;;;;6328080;22;28411;-96
2022/09/07 18:35:05;;;;;;;;;2.00;2.00;;;;;;;;6326622;22;28303;-96
2022/09/07 18:37:31;;;;;;;;;1.00;1.00;;;;;;;;6328417;22;28432;-96
2022/09/07 18:39:56;;;;;;;;;2.00;2.00;;;;;;;;6325589;22;28331;-96
2022/09/07 18:42:21;;;;;;;;;1.33;1.33;;;;;;;;6326895;22;28389;-95
2022/09/07 18:44:47;;;;;;;;;0.67;0.67;;;;;;;;6335669;22;28446;-96
2022/09/07 18:47:13;;;;;;;;;2.67;2.67;;;;;;;;6334515;22;27720;-93
2022/09/07 18:49:38;;;;;;;;;2.00;2.00;;;;;;;;6334580;22;28435;-94
2022/09/07 18:52:03;;;;;;;;;2.00;1.67;;;;;;;;6332216;22;28421;-94
2022/09/07 18:54:28;;;;;;;;;4.00;2.33;;;;;;;;6333662;22;28413;-88
2022/09/07 18:56:53;;;;;;;;;1.67;1.67;;;;;;;;6332492;22;27842;-93
2022/09/07 18:59:19;;;;;;;;;1.00;1.00;;;;;;;;6331571;22;28263;-92
2022/09/07 19:01:44;;;;;;;;;3.00;2.00;;;;;;;;6333202;22;27829;-92
2022/09/07 19:04:09;;;;;;;;;2.33;1.00;;;;;;;;6330896;22;29804;-92
2022/09/07 19:06:34;;;;;;;;;0.33;0.33;;;;;;;;6323876;22;28341;-93
2022/09/07 19:09:02;;;;;;;;;1.00;1.00;;;;;;;;6328741;22;27767;-92
2022/09/07 19:11:27;;;;;;;;;1.00;1.00;;;;;;;;6323665;22;28487;-92
2022/09/07 19:14:02;;;;;;;;;1.00;1.00;;;;;;;;6322936;22;31080;-93
2022/09/07 19:16:28;;;;;;;;;1.00;1.00;;;;;;;;6327060;22;28425;-96
2022/09/07 19:18:58;;;;;;;;;3.00;1.33;;;;;;;;6323677;22;28372;-92
2022/09/07 19:21:24;;;;;;;;;2.00;2.00;;;;;;;;6324460;22;28332;-93
2022/09/07 19:23:55;;;;;;;;;2.67;2.00;;;;;;;;6321937;22;30573;-92
2022/09/07 19:26:20;;;;;;;;;1.00;1.00;;;;;;;;6323456;22;28407;-93
2022/09/07 19:28:52;;;;;;;;;1.00;1.00;;;;;;;;6321166;22;28752;-92
2022/09/07 19:31:17;;;;;;;;;3.00;3.00;;;;;;;;6324495;22;28690;-92
2022/09/07 19:33:43;;;;;;;;;2.67;1.33;;;;;;;;6320817;22;30116;-93
2022/09/07 19:36:08;;;;;;;;;1.67;1.00;;;;;;;;6322587;22;28430;-93
2022/09/07 19:38:34;;;;;;;;;1.00;1.00;;;;;;;;6323343;22;28347;-93
2022/09/07 19:41:00;;;;;;;;;2.00;1.00;;;;;;;;6320389;22;28508;-92
2022/09/07 19:43:26;;;;;;;;;2.00;2.00;;;;;;;;6320679;22;29925;-93
2022/09/07 19:45:51;;;;;;;;;1.00;1.00;;;;;;;;6322041;22;28477;-94
2022/09/07 19:48:16;;;;;;;;;1.00;1.00;;;;;;;;6322857;22;28481;-95
2022/09/07 19:50:43;;;;;;;;;0.00;0.00;;;;;;;;6323325;22;28356;-91
2022/09/07 19:53:08;;;;;;;;;2.33;1.00;;;;;;;;6321040;22;31094;-90
2022/09/07 19:55:34;;;;;;;;;1.67;1.00;;;;;;;;6320372;22;29967;-90
